sensor_id;sensor_type;location;lat;lon;timestamp;pressure;altitude;pressure_sealevel;temperature;humidity
9307;BME280;4691;47.612;7.610;2023-01-29T00:01:04;99641.91;;;1.22;100.00
9307;BME280;4691;47.612;7.610;2023-01-29T00:03:30;99649.81;;;1.22;100.00
9307;BME280;4691;47.612;7.610;2023-01-29T00:05:55;99641.84;;;1.25;100.00
9307;BME280;4691;47.612;7.610;2023-01-29T00:08:20;99650.56;;;1.27;100.00
9307;BME280;4691;47.612;7.610;2023-01-29T00:10:45;99649.72;;;1.27;100.00
9307;BME280;4691;47.612;7.610;2023-01-29T00:13:11;99641.06;;;1.22;100.00
9307;BME280;4691;47.612;7.610;2023-01-29T00:15:37;99649.00;;;1.20;100.00
9307;BME280;4691;47.612;7.610;2023-01-29T00:18:02;99646.41;;;1.19;100.00
9307;BME280;4691;47.612;7.610;2023-01-29T00:20:27;99646.50;;;1.16;100.00
9307;BME280;4691;47.612;7.610;2023-01-29T00:22:52;99630.69;;;1.16;100.00
9307;BME280;4691;47.612;7.610;2023-01-29T00:25:18;99630.69;;;1.16;100.00
9307;BME280;4691;47.612;7.610;2023-01-29T00:27:43;99628.09;;;1.14;100.00
9307;BME280;4691;47.612;7.610;2023-01-29T00:30:09;99642.19;;;1.13;100.00
9307;BME280;4691;47.612;7.610;2023-01-29T00:32:37;99640.41;;;1.14;100.00
9307;BME280;4691;47.612;7.610;2023-01-29T00:35:03;99635.03;;;1.18;100.00
9307;BME280;4691;47.612;7.610;2023-01-29T00:37:29;99630.72;;;1.14;100.00
9307;BME280;4691;47.612;7.610;2023-01-29T00:39:54;99624.63;;;1.12;100.00
9307;BME280;4691;47.612;7.610;2023-01-29T00:42:19;99633.44;;;1.11;100.00
9307;BME280;4691;47.612;7.610;2023-01-29T00:45:03;99635.25;;;1.09;100.00
9307;BME280;4691;47.612;7.610;2023-01-29T00:47:29;99635.25;;;1.09;100.00
9307;BME280;4691;47.612;7.610;2023-01-29T00:49:59;99625.75;;;1.03;100.00
9307;BME280;4691;47.612;7.610;2023-01-29T00:52:25;99619.53;;;1.06;100.00
9307;BME280;4691;47.612;7.610;2023-01-29T00:54:59;99620.41;;;1.05;100.00
9307;BME280;4691;47.612;7.610;2023-01-29T00:57:26;99624.94;;;1.00;100.00
9307;BME280;4691;47.612;7.610;2023-01-29T00:59:52;99617.97;;;0.99;100.00
9307;BME280;4691;47.612;7.610;2023-01-29T01:02:18;99618.06;;;0.96;100.00
9307;BME280;4691;47.612;7.610;2023-01-29T01:05:03;99626.84;;;0.95;100.00
9307;BME280;4691;47.612;7.610;2023-01-29T01:07:30;99629.41;;;0.98;100.00
9307;BME280;4691;47.612;7.610;2023-01-29T01:09:56;99626.06;;;0.91;100.00
9307;BME280;4691;47.612;7.610;2023-01-29T01:12:40;99613.75;;;0.92;100.00
9307;BME280;4691;47.612;7.610;2023-01-29T01:15:06;99612.91;;;0.90;100.00
9307;BME280;4691;47.612;7.610;2023-01-29T01:17:31;99614.66;;;0.91;100.00
9307;BME280;4691;47.612;7.610;2023-01-29T01:19:56;99623.47;;;0.90;100.00
9307;BME280;4691;47.612;7.610;2023-01-29T01:22:22;99619.94;;;0.91;100.00
9307;BME280;4691;47.612;7.610;2023-01-29T01:24:47;99619.94;;;0.91;100.00
9307;BME280;4691;47.612;7.610;2023-01-29T01:27:12;99624.41;;;0.87;100.00
9307;BME280;4691;47.612;7.610;2023-01-29T01:29:38;99618.34;;;0.85;100.00
9307;BME280;4691;47.612;7.610;2023-01-29T01:32:04;99617.41;;;0.86;100.00
9307;BME280;4691;47.612;7.610;2023-01-29T01:34:30;99620.16;;;0.81;100.00
9307;BME280;4691;47.612;7.610;2023-01-29T01:36:55;99614.88;;;0.81;100.00
9307;BME280;4691;47.612;7.610;2023-01-29T01:39:21;99616.63;;;0.82;100.00
9307;BME280;4691;47.612;7.610;2023-01-29T01:41:46;99614.00;;;0.82;100.00
9307;BME280;4691;47.612;7.610;2023-01-29T01:47:16;99618.56;;;0.74;100.00
9307;BME280;4691;47.612;7.610;2023-01-29T01:49:43;99606.31;;;0.73;100.00
9307;BME280;4691;47.612;7.610;2023-01-29T01:52:09;99609.88;;;0.72;100.00
9307;BME280;4691;47.612;7.610;2023-01-29T01:54:35;99609.78;;;0.75;100.00
9307;BME280;4691;47.612;7.610;2023-01-29T01:57:05;99605.47;;;0.73;100.00
9307;BME280;4691;47.612;7.610;2023-01-29T01:59:42;99597.59;;;0.71;100.00
9307;BME280;4691;47.612;7.610;2023-01-29T02:02:10;99597.66;;;0.70;100.00
9307;BME280;4691;47.612;7.610;2023-01-29T02:04:54;99596.75;;;0.69;100.00
9307;BME280;4691;47.612;7.610;2023-01-29T02:07:42;99602.88;;;0.71;100.00
9307;BME280;4691;47.612;7.610;2023-01-29T02:10:30;99604.63;;;0.71;100.00
9307;BME280;4691;47.612;7.610;2023-01-29T02:13:02;99601.16;;;0.70;100.00
9307;BME280;4691;47.612;7.610;2023-01-29T02:15:28;99598.59;;;0.67;100.00
9307;BME280;4691;47.612;7.610;2023-01-29T02:17:53;99587.16;;;0.68;100.00
9307;BME280;4691;47.612;7.610;2023-01-29T02:33:43;99570.81;;;0.55;100.00
9307;BME280;4691;47.612;7.610;2023-01-29T02:36:26;99563.00;;;0.52;100.00
9307;BME280;4691;47.612;7.610;2023-01-29T02:41:38;99562.88;;;0.57;100.00
9307;BME280;4691;47.612;7.610;2023-01-29T02:47:05;99566.25;;;0.62;100.00
9307;BME280;4691;47.612;7.610;2023-01-29T02:50:02;99569.09;;;0.54;100.00
9307;BME280;4691;47.612;7.610;2023-01-29T02:52:41;99566.47;;;0.53;100.00
9307;BME280;4691;47.612;7.610;2023-01-29T02:55:47;99571.84;;;0.48;100.00
9307;BME280;4691;47.612;7.610;2023-01-29T03:00:50;99558.06;;;0.38;100.00
9307;BME280;4691;47.612;7.610;2023-01-29T03:03:25;99562.66;;;0.30;100.00
9307;BME280;4691;47.612;7.610;2023-01-29T03:06:00;99556.59;;;0.27;100.00
9307;BME280;4691;47.612;7.610;2023-01-29T03:08:42;99553.16;;;0.23;100.00
9307;BME280;4691;47.612;7.610;2023-01-29T03:11:11;99549.66;;;0.24;100.00
9307;BME280;4691;47.612;7.610;2023-01-29T03:13:43;99550.53;;;0.23;100.00
9307;BME280;4691;47.612;7.610;2023-01-29T03:19:39;99538.31;;;0.20;100.00
9307;BME280;4691;47.612;7.610;2023-01-29T03:22:06;99542.66;;;0.23;100.00
9307;BME280;4691;47.612;7.610;2023-01-29T03:24:46;99543.53;;;0.24;100.00
9307;BME280;4691;47.612;7.610;2023-01-29T03:27:40;99558.59;;;0.17;100.00
9307;BME280;4691;47.612;7.610;2023-01-29T03:30:29;99543.59;;;0.20;100.00
9307;BME280;4691;47.612;7.610;2023-01-29T03:33:17;99547.84;;;0.26;100.00
9307;BME280;4691;47.612;7.610;2023-01-29T03:35:57;99557.56;;;0.22;100.00
9307;BME280;4691;47.612;7.610;2023-01-29T03:38:25;99560.25;;;0.21;100.00
9307;BME280;4691;47.612;7.610;2023-01-29T03:43:49;99558.50;;;0.20;100.00
9307;BME280;4691;47.612;7.610;2023-01-29T03:46:37;99554.94;;;0.22;100.00
9307;BME280;4691;47.612;7.610;2023-01-29T03:49:08;99544.41;;;0.22;100.00
9307;BME280;4691;47.612;7.610;2023-01-29T03:52:01;99554.75;;;0.30;100.00
9307;BME280;4691;47.612;7.610;2023-01-29T03:54:40;99560.94;;;0.29;100.00
9307;BME280;4691;47.612;7.610;2023-01-29T03:57:16;99560.09;;;0.27;100.00
9307;BME280;4691;47.612;7.610;2023-01-29T03:59:47;99555.69;;;0.28;100.00
9307;BME280;4691;47.612;7.610;2023-01-29T04:02:18;99559.16;;;0.30;100.00
9307;BME280;4691;47.612;7.610;2023-01-29T04:04:47;99555.75;;;0.26;100.00
9307;BME280;4691;47.612;7.610;2023-01-29T04:07:16;99563.66;;;0.26;100.00
9307;BME280;4691;47.612;7.610;2023-01-29T04:09:50;99559.34;;;0.22;100.00
9307;BME280;4691;47.612;7.610;2023-01-29T04:12:20;99572.50;;;0.22;100.00
9307;BME280;4691;47.612;7.610;2023-01-29T04:14:49;99574.22;;;0.23;100.00
9307;BME280;4691;47.612;7.610;2023-01-29T04:17:23;99578.69;;;0.19;100.00
9307;BME280;4691;47.612;7.610;2023-01-29T04:19:52;99586.50;;;0.22;100.00
9307;BME280;4691;47.612;7.610;2023-01-29T04:22:25;99589.28;;;0.16;100.00
9307;BME280;4691;47.612;7.610;2023-01-29T04:24:52;99585.81;;;0.14;100.00
9307;BME280;4691;47.612;7.610;2023-01-29T04:27:25;99588.47;;;0.14;100.00
9307;BME280;4691;47.612;7.610;2023-01-29T04:38:55;99591.28;;;0.07;100.00
9307;BME280;4691;47.612;7.610;2023-01-29T04:41:30;99590.44;;;0.05;100.00
9307;BME280;4691;47.612;7.610;2023-01-29T04:44:03;99593.13;;;0.03;100.00
9307;BME280;4691;47.612;7.610;2023-01-29T04:52:10;99598.41;;;0.02;100.00
9307;BME280;4691;47.612;7.610;2023-01-29T04:57:17;99593.97;;;0.04;100.00
9307;BME280;4691;47.612;7.610;2023-01-29T04:59:52;99600.94;;;0.06;100.00
9307;BME280;4691;47.612;7.610;2023-01-29T05:02:21;99593.03;;;0.06;100.00
9307;BME280;4691;47.612;7.610;2023-01-29T05:04:48;99593.03;;;0.06;100.00
9307;BME280;4691;47.612;7.610;2023-01-29T05:07:15;99592.09;;;0.09;100.00
9307;BME280;4691;47.612;7.610;2023-01-29T05:09:44;99591.25;;;0.08;100.00
9307;BME280;4691;47.612;7.610;2023-01-29T05:12:11;99593.97;;;0.04;100.00
9307;BME280;4691;47.612;7.610;2023-01-29T05:14:39;99597.44;;;0.06;100.00
9307;BME280;4691;47.612;7.610;2023-01-29T05:17:10;99593.13;;;0.03;100.00
9307;BME280;4691;47.612;7.610;2023-01-29T05:19:38;99595.63;;;0.08;100.00
9307;BME280;4691;47.612;7.610;2023-01-29T05:22:04;99593.13;;;0.02;100.00
9307;BME280;4691;47.612;7.610;2023-01-29T05:24:30;99597.63;;;-0.04;100.00
9307;BME280;4691;47.612;7.610;2023-01-29T05:26:55;99591.34;;;0.04;100.00
9307;BME280;4691;47.612;7.610;2023-01-29T05:29:46;99598.63;;;-0.08;100.00
9307;BME280;4691;47.612;7.610;2023-01-29T05:32:12;99596.00;;;-0.09;100.00
9307;BME280;4691;47.612;7.610;2023-01-29T05:34:37;99599.66;;;-0.15;100.00
9307;BME280;4691;47.612;7.610;2023-01-29T05:37:03;99604.16;;;-0.20;100.00
9307;BME280;4691;47.612;7.610;2023-01-29T05:39:28;99609.34;;;-0.18;100.00
9307;BME280;4691;47.612;7.610;2023-01-29T05:41:53;99608.56;;;-0.22;100.00
9307;BME280;4691;47.612;7.610;2023-01-29T05:44:18;99624.19;;;-0.16;100.00
9307;BME280;4691;47.612;7.610;2023-01-29T05:46:44;99618.97;;;-0.17;100.00
9307;BME280;4691;47.612;7.610;2023-01-29T05:49:10;99614.72;;;-0.23;100.00
9307;BME280;4691;47.612;7.610;2023-01-29T05:51:35;99618.25;;;-0.24;100.00
9307;BME280;4691;47.612;7.610;2023-01-29T05:54:01;99623.56;;;-0.27;100.00
9307;BME280;4691;47.612;7.610;2023-01-29T05:56:26;99623.59;;;-0.29;100.00
9307;BME280;4691;47.612;7.610;2023-01-29T05:58:51;99620.88;;;-0.24;100.00
9307;BME280;4691;47.612;7.610;2023-01-29T06:01:20;99618.31;;;-0.29;100.00
9307;BME280;4691;47.612;7.610;2023-01-29T06:03:46;99617.53;;;-0.31;100.00
9307;BME280;4691;47.612;7.610;2023-01-29T06:06:12;99616.78;;;-0.37;100.00
9307;BME280;4691;47.612;7.610;2023-01-29T06:08:37;99618.44;;;-0.33;100.00
9307;BME280;4691;47.612;7.610;2023-01-29T06:11:03;99627.16;;;-0.31;100.00
9307;BME280;4691;47.612;7.610;2023-01-29T06:13:28;99629.72;;;-0.28;100.00
9307;BME280;4691;47.612;7.610;2023-01-29T06:15:54;99638.50;;;-0.29;100.00
9307;BME280;4691;47.612;7.610;2023-01-29T06:18:19;99650.81;;;-0.31;100.00
9307;BME280;4691;47.612;7.610;2023-01-29T06:20:44;99640.25;;;-0.28;100.00
9307;BME280;4691;47.612;7.610;2023-01-29T06:23:10;99636.72;;;-0.27;100.00
9307;BME280;4691;47.612;7.610;2023-01-29T06:25:35;99641.19;;;-0.31;100.00
9307;BME280;4691;47.612;7.610;2023-01-29T06:28:00;99636.88;;;-0.36;100.00
9307;BME280;4691;47.612;7.610;2023-01-29T06:30:26;99627.13;;;-0.30;100.00
9307;BME280;4691;47.612;7.610;2023-01-29T06:32:56;99624.41;;;-0.25;100.00
9307;BME280;4691;47.612;7.610;2023-01-29T06:35:23;99624.41;;;-0.25;100.00
9307;BME280;4691;47.612;7.610;2023-01-29T06:37:48;99617.41;;;-0.26;100.00
9307;BME280;4691;47.612;7.610;2023-01-29T06:40:13;99610.56;;;-0.33;100.00
9307;BME280;4691;47.612;7.610;2023-01-29T06:42:39;99600.91;;;-0.33;100.00
9307;BME280;4691;47.612;7.610;2023-01-29T06:45:04;99588.44;;;-0.23;100.00
9307;BME280;4691;47.612;7.610;2023-01-29T06:47:30;99585.00;;;-0.27;100.00
9307;BME280;4691;47.612;7.610;2023-01-29T06:49:55;99593.88;;;-0.31;100.00
9307;BME280;4691;47.612;7.610;2023-01-29T06:52:20;99591.31;;;-0.35;100.00
9307;BME280;4691;47.612;7.610;2023-01-29T06:54:46;99589.41;;;-0.29;100.00
9307;BME280;4691;47.612;7.610;2023-01-29T06:57:11;99593.03;;;-0.34;100.00
9307;BME280;4691;47.612;7.610;2023-01-29T06:59:36;99596.66;;;-0.38;100.00
9307;BME280;4691;47.612;7.610;2023-01-29T07:02:02;99609.78;;;-0.38;100.00
9307;BME280;4691;47.612;7.610;2023-01-29T07:04:28;99605.31;;;-0.35;100.00
9307;BME280;4691;47.612;7.610;2023-01-29T07:06:53;99603.63;;;-0.37;100.00
9307;BME280;4691;47.612;7.610;2023-01-29T07:09:18;99621.94;;;-0.33;100.00
9307;BME280;4691;47.612;7.610;2023-01-29T07:11:43;99621.84;;;-0.28;100.00
9307;BME280;4691;47.612;7.610;2023-01-29T07:14:09;99628.13;;;-0.35;100.00
9307;BME280;4691;47.612;7.610;2023-01-29T07:16:34;99617.22;;;-0.17;100.00
9307;BME280;4691;47.612;7.610;2023-01-29T07:19:00;99632.16;;;-0.19;100.00
9307;BME280;4691;47.612;7.610;2023-01-29T07:21:25;99647.16;;;-0.24;100.00
9307;BME280;4691;47.612;7.610;2023-01-29T07:23:50;99647.13;;;-0.23;100.00
9307;BME280;4691;47.612;7.610;2023-01-29T07:26:16;99656.81;;;-0.26;100.00
9307;BME280;4691;47.612;7.610;2023-01-29T07:28:41;99655.88;;;-0.22;100.00
9307;BME280;4691;47.612;7.610;2023-01-29T07:31:07;99653.34;;;-0.27;100.00
9307;BME280;4691;47.612;7.610;2023-01-29T07:33:35;99656.03;;;-0.28;100.00
9307;BME280;4691;47.612;7.610;2023-01-29T07:36:01;99664.69;;;-0.23;100.00
9307;BME280;4691;47.612;7.610;2023-01-29T07:38:26;99664.53;;;-0.15;100.00
9307;BME280;4691;47.612;7.610;2023-01-29T07:40:52;99670.78;;;-0.23;100.00
9307;BME280;4691;47.612;7.610;2023-01-29T07:43:17;99676.91;;;-0.22;100.00
9307;BME280;4691;47.612;7.610;2023-01-29T07:45:42;99672.44;;;-0.17;100.00
9307;BME280;4691;47.612;7.610;2023-01-29T07:48:10;99666.31;;;-0.19;100.00
9307;BME280;4691;47.612;7.610;2023-01-29T07:50:36;99670.81;;;-0.24;100.00
9307;BME280;4691;47.612;7.610;2023-01-29T07:53:02;99675.28;;;-0.29;100.00
9307;BME280;4691;47.612;7.610;2023-01-29T07:55:27;99669.88;;;-0.20;100.00
9307;BME280;4691;47.612;7.610;2023-01-29T07:58:01;99678.59;;;-0.18;100.00
9307;BME280;4691;47.612;7.610;2023-01-29T08:00:27;99673.13;;;-0.09;100.00
9307;BME280;4691;47.612;7.610;2023-01-29T08:02:53;99678.47;;;-0.13;100.00
9307;BME280;4691;47.612;7.610;2023-01-29T08:05:19;99673.13;;;-0.09;100.00
9307;BME280;4691;47.612;7.610;2023-01-29T08:07:44;99672.09;;;0.00;100.00
9307;BME280;4691;47.612;7.610;2023-01-29T08:10:10;99678.31;;;-0.06;100.00
9307;BME280;4691;47.612;7.610;2023-01-29T08:12:35;99686.34;;;-0.13;100.00
9307;BME280;4691;47.612;7.610;2023-01-29T08:15:01;99678.53;;;-0.15;100.00
9307;BME280;4691;47.612;7.610;2023-01-29T08:17:26;99680.13;;;-0.08;100.00
9307;BME280;4691;47.612;7.610;2023-01-29T08:19:51;99690.00;;;-0.19;100.00
9307;BME280;4691;47.612;7.610;2023-01-29T08:22:17;99692.22;;;-0.01;100.00
9307;BME280;4691;47.612;7.610;2023-01-29T08:24:42;99692.31;;;-0.04;100.00
9307;BME280;4691;47.612;7.610;2023-01-29T08:27:07;99697.47;;;0.01;100.00
9307;BME280;4691;47.612;7.610;2023-01-29T08:29:33;99703.56;;;0.03;100.00
9307;BME280;4691;47.612;7.610;2023-01-29T08:31:58;99720.59;;;0.26;100.00
9307;BME280;4691;47.612;7.610;2023-01-29T08:34:24;99727.25;;;0.02;100.00
9307;BME280;4691;47.612;7.610;2023-01-29T08:36:50;99736.63;;;0.15;100.00
9307;BME280;4691;47.612;7.610;2023-01-29T08:39:15;99747.72;;;-0.13;100.00
9307;BME280;4691;47.612;7.610;2023-01-29T08:41:40;99750.00;;;0.04;100.00
9307;BME280;4691;47.612;7.610;2023-01-29T08:44:06;99763.00;;;0.10;100.00
9307;BME280;4691;47.612;7.610;2023-01-29T08:46:31;99770.13;;;0.07;100.00
9307;BME280;4691;47.612;7.610;2023-01-29T08:48:56;99776.97;;;0.14;100.00
9307;BME280;4691;47.612;7.610;2023-01-29T08:51:23;99779.31;;;0.29;100.00
9307;BME280;4691;47.612;7.610;2023-01-29T08:53:49;99790.88;;;0.20;100.00
9307;BME280;4691;47.612;7.610;2023-01-29T08:56:14;99804.53;;;0.38;100.00
9307;BME280;4691;47.612;7.610;2023-01-29T08:58:40;99801.03;;;0.39;100.00
9307;BME280;4691;47.612;7.610;2023-01-29T09:01:11;99810.66;;;0.38;100.00
9307;BME280;4691;47.612;7.610;2023-01-29T09:03:36;99809.81;;;0.38;100.00
9307;BME280;4691;47.612;7.610;2023-01-29T09:06:05;99811.28;;;0.51;100.00
9307;BME280;4691;47.612;7.610;2023-01-29T09:08:30;99821.25;;;0.37;100.00
9307;BME280;4691;47.612;7.610;2023-01-29T09:10:57;99820.84;;;0.57;100.00
9307;BME280;4691;47.612;7.610;2023-01-29T09:13:23;99832.47;;;0.45;100.00
9307;BME280;4691;47.612;7.610;2023-01-29T09:15:49;99836.06;;;0.41;100.00
9307;BME280;4691;47.612;7.610;2023-01-29T09:18:14;99840.38;;;0.43;100.00
9307;BME280;4691;47.612;7.610;2023-01-29T09:20:39;99841.97;;;0.52;100.00
9307;BME280;4691;47.612;7.610;2023-01-29T09:23:06;99847.94;;;0.60;100.00
9307;BME280;4691;47.612;7.610;2023-01-29T09:25:33;99851.75;;;0.47;100.00
9307;BME280;4691;47.612;7.610;2023-01-29T09:27:58;99855.97;;;0.54;100.00
9307;BME280;4691;47.612;7.610;2023-01-29T09:30:23;99862.94;;;0.57;100.00
9307;BME280;4691;47.612;7.610;2023-01-29T09:32:49;99863.69;;;0.63;100.00
9307;BME280;4691;47.612;7.610;2023-01-29T09:35:14;99861.41;;;0.47;100.00
9307;BME280;4691;47.612;7.610;2023-01-29T09:37:40;99865.97;;;0.80;100.00
9307;BME280;4691;47.612;7.610;2023-01-29T09:40:07;99872.16;;;0.78;100.00
9307;BME280;4691;47.612;7.610;2023-01-29T09:42:50;99878.06;;;0.89;100.00
9307;BME280;4691;47.612;7.610;2023-01-29T09:45:20;99877.13;;;0.92;100.00
9307;BME280;4691;47.612;7.610;2023-01-29T09:47:49;99885.69;;;1.01;100.00
9307;BME280;4691;47.612;7.610;2023-01-29T09:50:37;99887.88;;;0.81;100.00
9307;BME280;4691;47.612;7.610;2023-01-29T09:53:14;99892.53;;;0.68;100.00
9307;BME280;4691;47.612;7.610;2023-01-29T09:55:55;99895.09;;;1.13;100.00
9307;BME280;4691;47.612;7.610;2023-01-29T09:58:33;99894.94;;;1.19;100.00
9307;BME280;4691;47.612;7.610;2023-01-29T10:01:11;99903.97;;;1.09;100.00
9307;BME280;4691;47.612;7.610;2023-01-29T10:06:46;99896.03;;;1.48;100.00
9307;BME280;4691;47.612;7.610;2023-01-29T10:09:35;99901.25;;;1.12;100.00
9307;BME280;4691;47.612;7.610;2023-01-29T10:12:18;99901.13;;;1.18;100.00
9307;BME280;4691;47.612;7.610;2023-01-29T10:14:55;99890.19;;;1.72;100.00
9307;BME280;4691;47.612;7.610;2023-01-29T10:17:43;99897.53;;;1.95;100.00
9307;BME280;4691;47.612;7.610;2023-01-29T10:23:17;99908.91;;;2.30;100.00
9307;BME280;4691;47.612;7.610;2023-01-29T10:25:46;99911.63;;;2.91;100.00
9307;BME280;4691;47.612;7.610;2023-01-29T10:28:24;99921.06;;;2.36;100.00
9307;BME280;4691;47.612;7.610;2023-01-29T10:30:56;99919.75;;;2.20;100.00
9307;BME280;4691;47.612;7.610;2023-01-29T10:33:35;99929.34;;;2.24;100.00
9307;BME280;4691;47.612;7.610;2023-01-29T10:36:05;99928.34;;;2.60;100.00
9307;BME280;4691;47.612;7.610;2023-01-29T10:38:42;99922.81;;;2.99;100.00
9307;BME280;4691;47.612;7.610;2023-01-29T10:41:30;99928.56;;;2.51;100.00
9307;BME280;4691;47.612;7.610;2023-01-29T10:44:26;99936.13;;;2.96;100.00
9307;BME280;4691;47.612;7.610;2023-01-29T10:57:38;99902.97;;;2.55;100.00
9307;BME280;4691;47.612;7.610;2023-01-29T11:00:22;99896.09;;;2.80;100.00
9307;BME280;4691;47.612;7.610;2023-01-29T11:02:50;99904.22;;;3.02;100.00
9307;BME280;4691;47.612;7.610;2023-01-29T11:05:19;99900.75;;;3.30;100.00
9307;BME280;4691;47.612;7.610;2023-01-29T11:07:48;99890.63;;;3.16;100.00
9307;BME280;4691;47.612;7.610;2023-01-29T11:10:21;99883.19;;;3.56;100.00
9307;BME280;4691;47.612;7.610;2023-01-29T11:12:48;99866.41;;;4.33;100.00
9307;BME280;4691;47.612;7.610;2023-01-29T11:15:30;99861.69;;;6.00;100.00
9307;BME280;4691;47.612;7.610;2023-01-29T11:18:09;99863.28;;;5.40;100.00
9307;BME280;4691;47.612;7.610;2023-01-29T11:21:02;99818.13;;;8.44;100.00
9307;BME280;4691;47.612;7.610;2023-01-29T11:23:32;99742.22;;;13.59;100.00
9307;BME280;4691;47.612;7.610;2023-01-29T11:25:58;99747.78;;;11.68;100.00
9307;BME280;4691;47.612;7.610;2023-01-29T11:28:45;99752.16;;;9.88;100.00
9307;BME280;4691;47.612;7.610;2023-01-29T11:31:24;99821.63;;;8.45;100.00
9307;BME280;4691;47.612;7.610;2023-01-29T11:36:37;99852.09;;;5.54;100.00
9307;BME280;4691;47.612;7.610;2023-01-29T11:39:20;99854.63;;;5.57;100.00
9307;BME280;4691;47.612;7.610;2023-01-29T11:44:26;99876.59;;;5.16;100.00
9307;BME280;4691;47.612;7.610;2023-01-29T11:46:52;99874.88;;;4.68;100.00
9307;BME280;4691;47.612;7.610;2023-01-29T11:49:32;99870.16;;;5.00;100.00
9307;BME280;4691;47.612;7.610;2023-01-29T11:52:01;99866.31;;;4.36;100.00
9307;BME280;4691;47.612;7.610;2023-01-29T11:54:31;99881.09;;;4.67;100.00
9307;BME280;4691;47.612;7.610;2023-01-29T11:56:58;99888.25;;;4.65;100.00
9307;BME280;4691;47.612;7.610;2023-01-29T11:59:42;99898.66;;;3.95;100.00
9307;BME280;4691;47.612;7.610;2023-01-29T12:02:26;99884.69;;;4.16;100.00
9307;BME280;4691;47.612;7.610;2023-01-29T12:04:57;99885.31;;;3.44;100.00
9307;BME280;4691;47.612;7.610;2023-01-29T12:07:24;99880.81;;;4.01;100.00
9307;BME280;4691;47.612;7.610;2023-01-29T12:09:53;99873.91;;;3.96;100.00
9307;BME280;4691;47.612;7.610;2023-01-29T12:15:14;99859.75;;;4.47;100.00
9307;BME280;4691;47.612;7.610;2023-01-29T12:17:44;99853.34;;;4.29;100.00
9307;BME280;4691;47.612;7.610;2023-01-29T12:20:17;99855.72;;;4.36;100.00
9307;BME280;4691;47.612;7.610;2023-01-29T12:22:55;99856.00;;;4.04;100.00
9307;BME280;4691;47.612;7.610;2023-01-29T12:25:40;99856.19;;;4.24;100.00
9307;BME280;4691;47.612;7.610;2023-01-29T12:28:18;99859.63;;;4.01;100.00
9307;BME280;4691;47.612;7.610;2023-01-29T12:38:31;99851.50;;;4.06;100.00
9307;BME280;4691;47.612;7.610;2023-01-29T12:41:06;99857.94;;;3.99;100.00
9307;BME280;4691;47.612;7.610;2023-01-29T12:43:46;99857.94;;;3.99;100.00
9307;BME280;4691;47.612;7.610;2023-01-29T12:46:27;99853.91;;;3.88;100.00
9307;BME280;4691;47.612;7.610;2023-01-29T12:48:55;99837.44;;;5.01;100.00
9307;BME280;4691;47.612;7.610;2023-01-29T12:51:27;99840.75;;;4.35;100.00
9307;BME280;4691;47.612;7.610;2023-01-29T12:53:56;99836.94;;;4.19;100.00
9307;BME280;4691;47.612;7.610;2023-01-29T12:56:38;99838.31;;;3.79;100.00
9307;BME280;4691;47.612;7.610;2023-01-29T12:59:25;99828.06;;;3.95;100.00
9307;BME280;4691;47.612;7.610;2023-01-29T13:01:57;99823.31;;;4.05;100.00
9307;BME280;4691;47.612;7.610;2023-01-29T13:04:31;99821.13;;;4.16;100.00
9307;BME280;4691;47.612;7.610;2023-01-29T13:07:23;99819.75;;;4.06;100.00
9307;BME280;4691;47.612;7.610;2023-01-29T13:10:01;99814.41;;;4.32;100.00
9307;BME280;4691;47.612;7.610;2023-01-29T13:12:29;99817.84;;;3.84;100.00
9307;BME280;4691;47.612;7.610;2023-01-29T13:15:02;99818.03;;;4.05;100.00
9307;BME280;4691;47.612;7.610;2023-01-29T13:17:42;99822.97;;;3.90;100.00
9307;BME280;4691;47.612;7.610;2023-01-29T13:20:16;99811.66;;;4.10;100.00
9307;BME280;4691;47.612;7.610;2023-01-29T13:22:45;99813.47;;;4.08;100.00
9307;BME280;4691;47.612;7.610;2023-01-29T13:25:14;99801.81;;;4.14;100.00
9307;BME280;4691;47.612;7.610;2023-01-29T13:27:42;99798.28;;;4.13;100.00
9307;BME280;4691;47.612;7.610;2023-01-29T13:30:26;99801.06;;;4.34;100.00
9307;BME280;4691;47.612;7.610;2023-01-29T13:32:53;99787.31;;;4.71;100.00
9307;BME280;4691;47.612;7.610;2023-01-29T13:35:20;99781.47;;;4.85;100.00
9307;BME280;4691;47.612;7.610;2023-01-29T13:37:49;99774.53;;;4.12;100.00
9307;BME280;4691;47.612;7.610;2023-01-29T13:40:23;99773.56;;;4.38;100.00
9307;BME280;4691;47.612;7.610;2023-01-29T13:42:50;99775.00;;;4.23;100.00
9307;BME280;4691;47.612;7.610;2023-01-29T13:47:47;99777.19;;;4.59;100.00
9307;BME280;4691;47.612;7.610;2023-01-29T13:50:34;99775.25;;;3.92;100.00
9307;BME280;4691;47.612;7.610;2023-01-29T13:53:02;99766.91;;;4.03;100.00
9307;BME280;4691;47.612;7.610;2023-01-29T13:55:31;99775.69;;;4.05;100.00
9307;BME280;4691;47.612;7.610;2023-01-29T14:10:38;99753.66;;;3.79;100.00
9307;BME280;4691;47.612;7.610;2023-01-29T14:18:34;99750.78;;;3.60;100.00
9307;BME280;4691;47.612;7.610;2023-01-29T14:21:30;99754.50;;;3.80;100.00
9307;BME280;4691;47.612;7.610;2023-01-29T14:24:19;99744.34;;;3.42;100.00
9307;BME280;4691;47.612;7.610;2023-01-29T14:26:47;99742.25;;;3.77;100.00
9307;BME280;4691;47.612;7.610;2023-01-29T14:31:57;99752.88;;;3.51;100.00
9307;BME280;4691;47.612;7.610;2023-01-29T14:34:59;99751.91;;;3.53;100.00
9307;BME280;4691;47.612;7.610;2023-01-29T14:37:31;99752.81;;;3.27;100.00
9307;BME280;4691;47.612;7.610;2023-01-29T14:45:29;99756.97;;;3.34;100.00
9307;BME280;4691;47.612;7.610;2023-01-29T14:55:44;99762.13;;;3.64;100.00
9307;BME280;4691;47.612;7.610;2023-01-29T14:58:36;99764.59;;;3.43;100.00
9307;BME280;4691;47.612;7.610;2023-01-29T15:01:07;99770.91;;;3.39;100.00
9307;BME280;4691;47.612;7.610;2023-01-29T15:03:45;99772.84;;;3.34;100.00
9307;BME280;4691;47.612;7.610;2023-01-29T15:06:30;99768.34;;;3.36;100.00
9307;BME280;4691;47.612;7.610;2023-01-29T15:09:17;99769.78;;;3.20;100.00
9307;BME280;4691;47.612;7.610;2023-01-29T15:11:59;99765.69;;;3.10;100.00
9307;BME280;4691;47.612;7.610;2023-01-29T15:14:32;99770.50;;;3.25;100.00
9307;BME280;4691;47.612;7.610;2023-01-29T15:19:46;99791.91;;;3.16;100.00
9307;BME280;4691;47.612;7.610;2023-01-29T15:24:40;99792.94;;;3.12;100.00
9307;BME280;4691;47.612;7.610;2023-01-29T15:27:11;99798.13;;;3.15;100.00
9307;BME280;4691;47.612;7.610;2023-01-29T15:29:37;99782.72;;;3.01;100.00
9307;BME280;4691;47.612;7.610;2023-01-29T15:32:03;99783.44;;;3.06;100.00
9307;BME280;4691;47.612;7.610;2023-01-29T15:34:29;99785.91;;;3.11;100.00
9307;BME280;4691;47.612;7.610;2023-01-29T15:36:54;99786.00;;;2.81;100.00
9307;BME280;4691;47.612;7.610;2023-01-29T15:39:22;99790.19;;;2.88;100.00
9307;BME280;4691;47.612;7.610;2023-01-29T15:41:49;99791.16;;;3.12;100.00